KAAA

Logan County Airport

Lincoln, Illinois, USA
METAR KAAA 180835Z AUTO 23004KT 10SM OVC012 08/07 A3001 RMK AO2 T00750068
Observed Flight Rules
Dec-18 @ 08:35 UTC (18 minutes ago) Marginal Visual Flight Rules
Wind Visibility Clouds
230° at 4 knots 10 miles
  • Overcast at 1,200' AGL
Temperatures Readings
Current 8°C / 46°F
Dewpoint 7°C / 45°F
Humidity 93%
Altimeter 30.01" Hg
Pressure 1016 hPa
Elevation 182
METAR KAAA 180835Z AUTO 23004KT 10SM OVC012 08/07 A3001 RMK AO2 T00750068
Observed Flight Rules
Dec-18 @ 08:35 UTC
(18 minutes ago)
MVFR
Wind Visibility
230° at 4 knots 10 miles
Clouds
  • Overcast at 1,200' AGL
Temperature Dewpoint
8°C / 46°F 7°C / 45°F
Humidity Altimeter Pressure
93% 30.01" Hg 1016 hPa